Time;durP1;ratioP1;P1;durP2;ratioP2;P2;SDS_P1;SDS_P2;PMS_P1;PMS_P2;Temp;Humidity;BMP_temperature;BMP_pressure;BME280_temperature;BME280_humidity;BME280_pressure;Samples;Min_cycle;Max_cycle;Signal;HPM_P1;HPM_P2
2023/03/25 00:02:36;;;;;;;1.02;0.68;;;;;;;;;;8312151;28;20051;-64
2023/03/25 00:06:37;;;;;;;2.05;0.90;;;;;;;;;;8311246;28;20107;-63
2023/03/25 00:10:37;;;;;;;1.67;0.70;;;;;;;;;;8311079;28;20025;-63
2023/03/25 00:14:38;;;;;;;2.28;0.93;;;;;;;;;;8311101;28;20307;-64
2023/03/25 00:18:38;;;;;;;6.53;1.00;;;;;;;;;;8311953;28;20045;-64
2023/03/25 00:22:43;;;;;;;4.43;1.02;;;;;;;;;;8312918;28;20033;-63
2023/03/25 00:26:43;;;;;;;;;;;;;;;;;;8312550;28;20795;-63
2023/03/25 00:30:44;;;;;;;3.17;1.10;;;;;;;;;;8311732;28;20057;-64
2023/03/25 00:34:46;;;;;;;4.40;1.25;;;;;;;;;;8312021;28;20082;-63
2023/03/25 00:38:47;;;;;;;4.38;1.35;;;;;;;;;;8311493;28;20033;-63
2023/03/25 00:42:48;;;;;;;6.93;1.20;;;;;;;;;;8311123;28;20025;-63
2023/03/25 00:46:49;;;;;;;6.05;1.20;;;;;;;;;;8309763;28;20044;-63
2023/03/25 00:50:49;;;;;;;5.25;1.40;;;;;;;;;;8294862;28;20025;-63
2023/03/25 00:54:51;;;;;;;2.47;0.90;;;;;;;;;;8311271;28;20589;-64
2023/03/25 00:58:51;;;;;;;5.90;1.10;;;;;;;;;;8303376;28;20029;-64
2023/03/25 01:02:52;;;;;;;5.60;1.10;;;;;;;;;;8312078;28;20590;-63
2023/03/25 01:06:53;;;;;;;3.42;1.00;;;;;;;;;;8310480;28;20947;-64
2023/03/25 01:10:54;;;;;;;5.47;0.90;;;;;;;;;;8312306;28;20127;-63
2023/03/25 01:14:55;;;;;;;2.78;1.00;;;;;;;;;;8311336;28;20366;-64
2023/03/25 01:18:55;;;;;;;8.27;2.80;;;;;;;;;;8309803;28;20151;-63
2023/03/25 01:22:55;;;;;;;5.80;1.35;;;;;;;;;;8311985;28;20704;-64
2023/03/25 01:26:56;;;;;;;4.13;0.80;;;;;;;;;;8311149;28;20519;-63
2023/03/25 01:31:00;;;;;;;2.55;0.80;;;;;;;;;;8310258;28;20025;-63
2023/03/25 01:35:00;;;;;;;;;;;;;;;;;;8311264;28;20033;-63
2023/03/25 01:39:01;;;;;;;1.33;0.80;;;;;;;;;;8309298;28;19980;-63
2023/03/25 01:43:01;;;;;;;2.15;0.60;;;;;;;;;;8309556;28;20516;-63
2023/03/25 01:47:02;;;;;;;0.40;0.40;;;;;;;;;;8307557;28;20118;-63
2023/03/25 01:51:08;;;;;;;1.85;0.60;;;;;;;;;;8306572;28;20059;-63
2023/03/25 01:55:08;;;;;;;2.40;0.65;;;;;;;;;;8307517;28;20128;-63
2023/03/25 01:59:09;;;;;;;0.85;0.80;;;;;;;;;;8308915;28;20032;-63
2023/03/25 02:03:11;;;;;;;1.73;0.60;;;;;;;;;;8306796;28;20424;-63
2023/03/25 02:07:11;;;;;;;1.38;0.57;;;;;;;;;;8315804;28;20029;-63
2023/03/25 02:11:12;;;;;;;2.20;0.70;;;;;;;;;;8312625;28;20830;-63
2023/03/25 02:15:13;;;;;;;2.00;0.70;;;;;;;;;;8313752;28;20059;-63
2023/03/25 02:19:36;;;;;;;0.60;0.60;;;;;;;;;;8311676;28;20287;-63
2023/03/25 02:23:56;;;;;;;0.98;0.60;;;;;;;;;;8297552;28;20089;-63
2023/03/25 02:28:05;;;;;;;0.60;0.60;;;;;;;;;;8314111;28;20472;-63
2023/03/25 02:32:22;;;;;;;2.65;0.70;;;;;;;;;;8312450;28;20041;-63
2023/03/25 02:36:38;;;;;;;1.15;0.68;;;;;;;;;;8316360;28;20703;-63
2023/03/25 02:40:38;;;;;;;2.20;1.00;;;;;;;;;;8313828;28;20036;-63
2023/03/25 02:44:40;;;;;;;0.70;0.70;;;;;;;;;;8315018;28;20026;-63
2023/03/25 02:48:50;;;;;;;2.00;0.90;;;;;;;;;;8315317;28;20540;-63
2023/03/25 02:52:51;;;;;;;1.67;0.85;;;;;;;;;;8307976;28;20035;-63
2023/03/25 02:56:56;;;;;;;1.92;0.70;;;;;;;;;;8314277;28;20116;-63
2023/03/25 03:00:59;;;;;;;1.95;0.70;;;;;;;;;;8314137;28;20112;-63
2023/03/25 03:04:59;;;;;;;0.98;0.80;;;;;;;;;;8316359;28;20493;-63
2023/03/25 03:09:10;;;;;;;1.77;1.00;;;;;;;;;;8314124;28;20447;-63
2023/03/25 03:13:31;;;;;;;6.70;1.20;;;;;;;;;;8313706;28;20067;-63
2023/03/25 03:17:39;;;;;;;2.63;1.00;;;;;;;;;;8311210;28;20520;-63
2023/03/25 03:21:50;;;;;;;2.45;1.20;;;;;;;;;;8307251;28;20033;-63
2023/03/25 03:25:54;;;;;;;3.25;0.90;;;;;;;;;;8315663;28;20113;-63
2023/03/25 03:29:58;;;;;;;5.03;1.10;;;;;;;;;;8313528;28;20033;-63
2023/03/25 03:34:01;;;;;;;;;;;;;;;;;;8313997;28;20928;-63
2023/03/25 03:38:03;;;;;;;1.42;1.00;;;;;;;;;;8314648;28;19913;-63
2023/03/25 03:42:12;;;;;;;2.28;1.00;;;;;;;;;;8315376;28;20029;-63
2023/03/25 03:46:15;;;;;;;4.30;1.10;;;;;;;;;;8313476;28;20048;-63
2023/03/25 03:50:19;;;;;;;3.85;0.98;;;;;;;;;;8314916;28;20061;-63
2023/03/25 03:54:24;;;;;;;2.35;0.90;;;;;;;;;;8315070;28;20510;-63
2023/03/25 03:58:28;;;;;;;1.90;0.85;;;;;;;;;;8314968;28;20037;-63
2023/03/25 04:02:33;;;;;;;4.63;1.00;;;;;;;;;;8313418;28;20035;-63
2023/03/25 04:06:37;;;;;;;2.45;1.10;;;;;;;;;;8315040;28;20027;-63
2023/03/25 04:10:44;;;;;;;3.58;1.08;;;;;;;;;;8313581;28;20017;-63
2023/03/25 04:14:45;;;;;;;5.18;1.42;;;;;;;;;;8311818;28;20036;-63
2023/03/25 04:18:46;;;;;;;1.38;1.00;;;;;;;;;;8310631;28;20037;-63
2023/03/25 04:22:48;;;;;;;5.28;1.15;;;;;;;;;;8313176;28;20028;-63
2023/03/25 04:26:48;;;;;;;5.03;1.00;;;;;;;;;;8311499;28;20044;-63
2023/03/25 04:30:54;;;;;;;1.08;0.80;;;;;;;;;;8311117;28;20478;-63
2023/03/25 04:34:57;;;;;;;2.28;1.02;;;;;;;;;;8311763;28;20029;-63
2023/03/25 04:38:57;;;;;;;2.80;0.75;;;;;;;;;;8312615;28;20112;-63
2023/03/25 04:42:57;;;;;;;1.90;1.02;;;;;;;;;;8311212;28;20036;-63
2023/03/25 04:46:58;;;;;;;3.75;1.20;;;;;;;;;;8311150;28;20425;-64
2023/03/25 04:51:00;;;;;;;0.90;0.70;;;;;;;;;;8302475;28;20072;-64
2023/03/25 04:55:01;;;;;;;3.10;0.88;;;;;;;;;;8312237;28;20707;-63
2023/03/25 04:59:01;;;;;;;3.20;1.02;;;;;;;;;;8312493;28;20028;-63
2023/03/25 05:03:02;;;;;;;4.90;0.90;;;;;;;;;;8309901;28;20048;-63
2023/03/25 05:07:02;;;;;;;3.58;1.00;;;;;;;;;;8311421;28;21014;-64
2023/03/25 05:11:03;;;;;;;3.72;1.20;;;;;;;;;;8309429;28;20538;-63
2023/03/25 05:15:03;;;;;;;2.15;1.13;;;;;;;;;;8310426;28;20021;-63
2023/03/25 05:19:05;;;;;;;2.42;1.25;;;;;;;;;;8311035;28;20351;-64
2023/03/25 05:23:10;;;;;;;3.83;1.50;;;;;;;;;;8312475;28;20025;-64
2023/03/25 05:27:11;;;;;;;2.97;1.50;;;;;;;;;;8310324;28;20045;-63
2023/03/25 05:31:11;;;;;;;3.95;1.35;;;;;;;;;;8302688;28;20151;-64
2023/03/25 05:35:11;;;;;;;5.97;1.45;;;;;;;;;;8310938;28;20037;-64
2023/03/25 05:39:12;;;;;;;4.67;1.40;;;;;;;;;;8305705;28;20033;-63
2023/03/25 05:43:15;;;;;;;4.70;1.55;;;;;;;;;;8318319;28;20291;-63
2023/03/25 05:47:17;;;;;;;4.25;1.20;;;;;;;;;;8316997;28;20128;-64
2023/03/25 05:51:20;;;;;;;5.28;1.40;;;;;;;;;;8318510;28;20013;-63
2023/03/25 05:55:21;;;;;;;4.57;1.33;;;;;;;;;;8317793;28;20102;-64
2023/03/25 05:59:21;;;;;;;5.10;0.98;;;;;;;;;;8320897;28;20034;-64
2023/03/25 06:03:24;;;;;;;6.38;1.50;;;;;;;;;;8315423;28;20048;-63
2023/03/25 06:07:25;;;;;;;2.70;1.13;;;;;;;;;;8319003;28;20375;-64
2023/03/25 06:11:25;;;;;;;2.67;1.00;;;;;;;;;;8317139;28;20052;-64
2023/03/25 06:15:32;;;;;;;6.63;1.40;;;;;;;;;;8300133;28;20118;-63
2023/03/25 06:19:37;;;;;;;5.07;1.33;;;;;;;;;;8315295;28;20021;-63
2023/03/25 06:23:38;;;;;;;11.05;1.65;;;;;;;;;;8313575;28;20025;-63
2023/03/25 06:27:39;;;;;;;5.47;1.70;;;;;;;;;;8318025;28;20017;-63
2023/03/25 06:31:39;;;;;;;10.32;2.03;;;;;;;;;;8316070;28;20040;-65
2023/03/25 06:35:41;;;;;;;7.28;1.50;;;;;;;;;;8314902;28;20018;-64
2023/03/25 06:39:45;;;;;;;6.90;1.83;;;;;;;;;;8315618;28;20025;-64
2023/03/25 06:43:45;;;;;;;7.15;1.95;;;;;;;;;;8317155;28;20147;-64
2023/03/25 06:47:45;;;;;;;8.13;1.75;;;;;;;;;;8315753;28;20041;-64
2023/03/25 06:51:46;;;;;;;4.68;1.30;;;;;;;;;;8317073;28;20957;-64
2023/03/25 06:55:46;;;;;;;9.57;1.88;;;;;;;;;;8314300;28;20655;-64
2023/03/25 06:59:47;;;;;;;10.43;1.83;;;;;;;;;;8315150;28;20090;-64
2023/03/25 07:03:47;;;;;;;11.35;2.15;;;;;;;;;;8313412;28;20041;-64
2023/03/25 07:07:47;;;;;;;8.38;2.10;;;;;;;;;;8314511;28;20037;-64
2023/03/25 07:11:47;;;;;;;6.70;2.07;;;;;;;;;;8313695;28;21036;-64
2023/03/25 07:15:47;;;;;;;8.27;1.90;;;;;;;;;;8314251;28;20029;-64
2023/03/25 07:19:48;;;;;;;11.07;2.00;;;;;;;;;;8315113;28;20049;-64
2023/03/25 07:23:48;;;;;;;6.82;1.60;;;;;;;;;;8315407;28;20394;-64
2023/03/25 07:27:49;;;;;;;7.38;1.70;;;;;;;;;;8314673;28;20073;-64
2023/03/25 07:31:49;;;;;;;5.45;1.65;;;;;;;;;;8312774;28;20106;-64
2023/03/25 07:35:49;;;;;;;8.98;1.90;;;;;;;;;;8315376;28;20554;-66
2023/03/25 07:39:50;;;;;;;9.05;2.00;;;;;;;;;;8314169;28;20548;-65
2023/03/25 07:43:50;;;;;;;7.38;1.63;;;;;;;;;;8312676;28;20025;-65
2023/03/25 07:47:50;;;;;;;11.40;2.40;;;;;;;;;;8313607;28;20692;-65
2023/03/25 07:51:50;;;;;;;8.20;1.85;;;;;;;;;;8313727;28;20863;-64
2023/03/25 07:55:50;;;;;;;7.80;2.20;;;;;;;;;;8312379;28;20064;-64
2023/03/25 07:59:50;;;;;;;6.53;2.00;;;;;;;;;;8314860;28;20033;-65
2023/03/25 08:03:51;;;;;;;8.07;1.70;;;;;;;;;;8307483;28;20037;-64
2023/03/25 08:07:51;;;;;;;7.80;1.95;;;;;;;;;;8311953;28;20743;-65
2023/03/25 08:11:52;;;;;;;7.28;1.73;;;;;;;;;;8310099;28;20067;-64
2023/03/25 08:15:52;;;;;;;8.50;1.80;;;;;;;;;;8311854;28;20034;-65
2023/03/25 08:19:52;;;;;;;6.23;2.00;;;;;;;;;;8309512;28;20761;-65
2023/03/25 08:23:57;;;;;;;9.43;2.20;;;;;;;;;;8311959;28;20287;-64
2023/03/25 08:27:57;;;;;;;6.85;1.92;;;;;;;;;;8311875;28;20025;-65
2023/03/25 08:31:57;;;;;;;5.75;1.80;;;;;;;;;;8311060;28;20040;-64
2023/03/25 08:35:57;;;;;;;7.28;1.65;;;;;;;;;;8311594;28;20024;-64
2023/03/25 08:39:57;;;;;;;11.48;2.17;;;;;;;;;;8311139;28;20032;-64
2023/03/25 08:43:58;;;;;;;6.20;1.58;;;;;;;;;;8311899;28;20021;-65
2023/03/25 08:47:58;;;;;;;4.07;1.50;;;;;;;;;;8311671;28;20029;-65
2023/03/25 08:52:00;;;;;;;7.63;1.60;;;;;;;;;;8313393;28;20024;-65
2023/03/25 08:56:00;;;;;;;5.45;1.38;;;;;;;;;;8311136;28;20025;-65
2023/03/25 09:00:01;;;;;;;7.33;1.97;;;;;;;;;;8312643;28;20135;-65
2023/03/25 09:04:01;;;;;;;4.82;1.50;;;;;;;;;;8313470;28;20288;-65
2023/03/25 09:08:02;;;;;;;6.50;1.67;;;;;;;;;;8312050;28;20033;-64
2023/03/25 09:12:04;;;;;;;6.57;1.42;;;;;;;;;;8311736;28;20328;-64
2023/03/25 09:16:04;;;;;;;5.40;1.50;;;;;;;;;;8309981;28;20096;-64
2023/03/25 09:20:07;;;;;;;5.22;1.38;;;;;;;;;;8312603;28;20013;-64
2023/03/25 09:24:08;;;;;;;7.78;1.80;;;;;;;;;;8310898;28;20025;-65
2023/03/25 09:28:08;;;;;;;4.72;1.25;;;;;;;;;;8310658;28;20060;-65
2023/03/25 09:32:08;;;;;;;7.03;1.60;;;;;;;;;;8307446;28;20036;-65
2023/03/25 09:36:08;;;;;;;6.32;1.42;;;;;;;;;;8310322;28;20036;-64
2023/03/25 09:40:11;;;;;;;4.67;1.37;;;;;;;;;;8311397;28;20064;-64
2023/03/25 09:44:20;;;;;;;5.95;1.50;;;;;;;;;;8309254;28;20310;-65
2023/03/25 09:48:35;;;;;;;6.05;2.38;;;;;;;;;;8310880;28;20064;-65
2023/03/25 09:52:48;;;;;;;4.28;1.38;;;;;;;;;;8308334;28;20053;-64
2023/03/25 09:56:50;;;;;;;2.67;1.10;;;;;;;;;;8311684;28;20028;-64
2023/03/25 10:00:52;;;;;;;6.53;1.38;;;;;;;;;;8308324;28;20372;-64
2023/03/25 10:05:09;;;;;;;5.40;1.27;;;;;;;;;;8308953;28;20036;-64
2023/03/25 10:09:09;;;;;;;5.30;1.65;;;;;;;;;;8309877;28;20700;-64
2023/03/25 10:13:35;;;;;;;4.75;1.23;;;;;;;;;;8310548;28;20215;-64
2023/03/25 10:17:39;;;;;;;4.07;1.27;;;;;;;;;;8306886;28;20029;-63
2023/03/25 10:22:02;;;;;;;11.80;1.80;;;;;;;;;;8309404;28;20792;-64
2023/03/25 10:26:29;;;;;;;5.87;1.30;;;;;;;;;;8306722;28;20068;-63
2023/03/25 10:30:42;;;;;;;6.20;1.20;;;;;;;;;;8312865;28;20128;-65
2023/03/25 10:34:48;;;;;;;8.25;1.30;;;;;;;;;;8316159;28;20021;-63
2023/03/25 10:38:53;;;;;;;3.45;0.90;;;;;;;;;;8316802;28;20111;-63
2023/03/25 10:43:11;;;;;;;1.85;0.70;;;;;;;;;;8316823;28;20036;-63
2023/03/25 10:47:15;;;;;;;1.35;0.70;;;;;;;;;;8314926;28;20513;-63
2023/03/25 10:51:16;;;;;;;1.60;0.80;;;;;;;;;;8313931;28;20029;-64
2023/03/25 10:55:21;;;;;;;1.60;0.70;;;;;;;;;;8316170;28;20041;-64
2023/03/25 10:59:24;;;;;;;2.42;0.90;;;;;;;;;;8311306;28;20493;-64
2023/03/25 11:03:28;;;;;;;1.90;0.50;;;;;;;;;;8313453;28;20046;-65
2023/03/25 11:07:31;;;;;;;2.05;0.82;;;;;;;;;;8316177;28;20995;-64
2023/03/25 11:11:32;;;;;;;4.45;0.65;;;;;;;;;;8313097;28;20072;-65
2023/03/25 11:15:33;;;;;;;2.55;0.77;;;;;;;;;;8313898;28;20028;-65
2023/03/25 11:19:41;;;;;;;1.75;0.80;;;;;;;;;;8315533;28;20029;-64
2023/03/25 11:23:45;;;;;;;2.58;0.85;;;;;;;;;;8315759;28;20025;-65
2023/03/25 11:27:55;;;;;;;3.67;1.00;;;;;;;;;;8315445;28;20399;-65
2023/03/25 11:32:12;;;;;;;4.40;1.25;;;;;;;;;;8313448;28;20155;-65
2023/03/25 11:36:16;;;;;;;3.83;1.10;;;;;;;;;;8311610;28;20079;-65
2023/03/25 11:40:17;;;;;;;2.50;0.88;;;;;;;;;;8314996;28;20132;-65
2023/03/25 11:44:21;;;;;;;4.28;1.02;;;;;;;;;;8314461;28;20021;-65
2023/03/25 11:48:22;;;;;;;4.35;1.00;;;;;;;;;;8315080;28;20057;-65
2023/03/25 11:52:27;;;;;;;3.38;1.00;;;;;;;;;;8315770;28;20037;-64
2023/03/25 11:56:32;;;;;;;4.90;1.25;;;;;;;;;;8313763;28;20021;-65
2023/03/25 12:00:37;;;;;;;3.95;1.30;;;;;;;;;;8313604;28;20047;-65
2023/03/25 12:04:52;;;;;;;3.00;1.02;;;;;;;;;;8314226;28;20029;-65
2023/03/25 12:08:56;;;;;;;3.03;0.95;;;;;;;;;;8314190;28;20021;-65
2023/03/25 12:12:56;;;;;;;;;;;;;;;;;;8311227;28;20513;-65
2023/03/25 12:17:04;;;;;;;3.28;1.20;;;;;;;;;;8312176;28;19916;-64
2023/03/25 12:21:28;;;;;;;3.67;1.15;;;;;;;;;;8310927;28;20048;-64
2023/03/25 12:25:36;;;;;;;4.00;1.20;;;;;;;;;;8302135;28;20992;-65
2023/03/25 12:29:37;;;;;;;1.95;0.90;;;;;;;;;;8311268;28;20037;-65
2023/03/25 12:33:56;;;;;;;3.73;0.80;;;;;;;;;;8311240;28;20074;-64
2023/03/25 12:38:15;;;;;;;2.75;1.10;;;;;;;;;;8311252;28;20048;-64
2023/03/25 12:42:28;;;;;;;5.18;0.93;;;;;;;;;;8311783;28;20025;-64
2023/03/25 12:46:31;;;;;;;4.95;1.20;;;;;;;;;;8312987;28;20091;-65
2023/03/25 12:50:31;;;;;;;4.60;1.17;;;;;;;;;;8309315;28;20029;-65
2023/03/25 12:54:41;;;;;;;5.40;1.05;;;;;;;;;;8312388;28;20017;-65
2023/03/25 12:58:44;;;;;;;2.35;0.80;;;;;;;;;;8310778;28;20028;-65
2023/03/25 13:02:59;;;;;;;3.90;1.10;;;;;;;;;;8311035;28;20036;-65
2023/03/25 13:07:03;;;;;;;4.72;1.13;;;;;;;;;;8312881;28;20112;-65
2023/03/25 13:11:35;;;;;;;3.15;1.08;;;;;;;;;;8311389;28;20013;-65
2023/03/25 13:15:43;;;;;;;3.83;1.00;;;;;;;;;;8286347;28;20033;-65
2023/03/25 13:19:43;;;;;;;4.45;1.35;;;;;;;;;;8311617;28;20025;-65
2023/03/25 13:23:45;;;;;;;5.13;1.35;;;;;;;;;;8311206;28;20697;-65
2023/03/25 13:27:47;;;;;;;1.88;1.00;;;;;;;;;;8312429;28;20143;-65
2023/03/25 13:31:48;;;;;;;5.20;1.20;;;;;;;;;;8309849;28;20603;-65
2023/03/25 13:35:55;;;;;;;5.47;1.00;;;;;;;;;;8310155;28;20026;-66
2023/03/25 13:40:13;;;;;;;4.80;1.20;;;;;;;;;;8310870;28;20885;-65
2023/03/25 13:44:26;;;;;;;5.22;1.10;;;;;;;;;;8309705;28;20036;-65
2023/03/25 13:48:30;;;;;;;4.43;1.13;;;;;;;;;;8306194;28;20041;-65
2023/03/25 13:52:38;;;;;;;2.55;1.15;;;;;;;;;;8308199;28;20028;-65
2023/03/25 13:56:47;;;;;;;2.33;0.93;;;;;;;;;;8307997;28;20702;-65
2023/03/25 14:01:07;;;;;;;3.25;1.20;;;;;;;;;;8310900;28;20034;-65
2023/03/25 14:05:23;;;;;;;6.03;1.33;;;;;;;;;;8315799;28;20115;-65
2023/03/25 14:09:32;;;;;;;3.25;1.17;;;;;;;;;;8315410;28;20029;-65
2023/03/25 14:13:36;;;;;;;3.58;1.10;;;;;;;;;;8314030;28;20111;-64
2023/03/25 14:17:38;;;;;;;4.07;1.17;;;;;;;;;;8313367;28;20041;-65
2023/03/25 14:21:38;;;;;;;3.30;1.05;;;;;;;;;;8313779;28;20033;-64
2023/03/25 14:25:40;;;;;;;4.82;1.30;;;;;;;;;;8312783;28;20027;-65
2023/03/25 14:29:42;;;;;;;3.60;1.40;;;;;;;;;;8316059;28;20148;-65
2023/03/25 14:34:03;;;;;;;6.00;1.42;;;;;;;;;;8313532;28;20064;-65
2023/03/25 14:38:06;;;;;;;3.88;1.23;;;;;;;;;;8313209;28;20382;-64
2023/03/25 14:42:07;;;;;;;4.67;1.00;;;;;;;;;;8314481;28;20031;-64
2023/03/25 14:46:10;;;;;;;4.45;1.23;;;;;;;;;;8312347;28;20592;-64
2023/03/25 14:50:19;;;;;;;4.83;1.30;;;;;;;;;;8311419;28;20025;-64
2023/03/25 14:54:31;;;;;;;4.68;1.13;;;;;;;;;;8313677;28;20028;-65
2023/03/25 14:58:31;;;;;;;6.45;1.13;;;;;;;;;;8312439;28;20152;-64
2023/03/25 15:02:32;;;;;;;2.83;1.25;;;;;;;;;;8312474;28;20033;-64
2023/03/25 15:06:33;;;;;;;2.83;1.05;;;;;;;;;;8312678;28;20032;-64
2023/03/25 15:10:44;;;;;;;5.90;1.40;;;;;;;;;;8312249;28;20071;-64
2023/03/25 15:14:47;;;;;;;6.15;1.33;;;;;;;;;;8311970;28;20033;-65
2023/03/25 15:18:48;;;;;;;5.25;1.10;;;;;;;;;;8309656;28;20675;-64
2023/03/25 15:23:07;;;;;;;3.67;1.20;;;;;;;;;;8313471;28;20360;-64
2023/03/25 15:27:15;;;;;;;4.25;1.08;;;;;;;;;;8312406;28;20103;-65
2023/03/25 15:31:27;;;;;;;4.05;1.27;;;;;;;;;;8314156;28;20128;-64
2023/03/25 15:35:30;;;;;;;5.82;1.60;;;;;;;;;;8313718;28;20104;-64
2023/03/25 15:39:30;;;;;;;3.63;1.20;;;;;;;;;;8312490;28;21031;-64
2023/03/25 15:43:33;;;;;;;6.70;1.40;;;;;;;;;;8312074;28;20041;-64
2023/03/25 15:47:42;;;;;;;5.95;1.35;;;;;;;;;;8312306;28;20043;-64
2023/03/25 15:51:42;;;;;;;5.35;1.10;;;;;;;;;;8312057;28;20026;-64
2023/03/25 15:55:48;;;;;;;5.20;1.10;;;;;;;;;;8311813;28;20029;-64
2023/03/25 16:00:13;;;;;;;5.75;1.40;;;;;;;;;;8311391;28;20279;-64
2023/03/25 16:04:16;;;;;;;6.88;1.48;;;;;;;;;;8311491;28;20041;-64
2023/03/25 16:08:20;;;;;;;7.17;1.67;;;;;;;;;;8311549;28;20017;-64
2023/03/25 16:12:22;;;;;;;6.43;1.83;;;;;;;;;;8308888;28;20329;-64
2023/03/25 16:16:22;;;;;;;3.72;1.15;;;;;;;;;;8309463;28;20067;-64
2023/03/25 16:20:24;;;;;;;5.20;1.40;;;;;;;;;;8310551;28;20112;-64
2023/03/25 16:24:25;;;;;;;5.25;1.10;;;;;;;;;;8312701;28;20294;-64
2023/03/25 16:28:25;;;;;;;3.40;1.10;;;;;;;;;;8312700;28;20030;-64
2023/03/25 16:32:33;;;;;;;4.18;1.00;;;;;;;;;;8312751;28;20038;-64
2023/03/25 16:36:33;;;;;;;3.42;0.93;;;;;;;;;;8312880;28;20028;-64
2023/03/25 16:40:39;;;;;;;4.97;1.00;;;;;;;;;;8310769;28;20021;-64
2023/03/25 16:44:39;;;;;;;4.97;1.30;;;;;;;;;;8312942;28;20147;-65
2023/03/25 16:48:47;;;;;;;3.60;1.17;;;;;;;;;;8313701;28;20627;-64
2023/03/25 16:52:49;;;;;;;2.85;0.93;;;;;;;;;;8311836;28;20768;-64
2023/03/25 16:56:50;;;;;;;2.67;0.93;;;;;;;;;;8312747;28;20067;-64
2023/03/25 17:00:52;;;;;;;2.58;0.90;;;;;;;;;;8310519;28;20049;-64
2023/03/25 17:04:53;;;;;;;3.78;0.90;;;;;;;;;;8309644;28;20750;-64
2023/03/25 17:08:55;;;;;;;4.53;0.90;;;;;;;;;;8310346;28;20072;-64
2023/03/25 17:12:56;;;;;;;4.60;1.20;;;;;;;;;;8308171;28;20945;-64
2023/03/25 17:17:00;;;;;;;2.95;0.90;;;;;;;;;;8310321;28;20037;-64
2023/03/25 17:21:00;;;;;;;6.78;1.20;;;;;;;;;;8307375;28;20025;-63
2023/03/25 17:25:33;;;;;;;2.35;0.75;;;;;;;;;;8309256;28;20025;-64
2023/03/25 17:29:47;;;;;;;5.40;0.88;;;;;;;;;;8281231;28;20040;-63
2023/03/25 17:33:48;;;;;;;2.43;0.63;;;;;;;;;;8308721;28;20458;-63
2023/03/25 17:37:49;;;;;;;1.00;0.45;;;;;;;;;;8315456;28;20156;-63
2023/03/25 17:41:54;;;;;;;2.03;0.82;;;;;;;;;;8315980;28;20028;-63
2023/03/25 17:45:54;;;;;;;1.23;0.60;;;;;;;;;;8315553;28;20120;-63
2023/03/25 17:49:56;;;;;;;0.88;0.47;;;;;;;;;;8313037;28;20029;-62
2023/03/25 17:53:56;;;;;;;0.73;0.70;;;;;;;;;;8316925;28;20547;-62
2023/03/25 17:57:56;;;;;;;1.30;0.50;;;;;;;;;;8315887;28;20105;-62
2023/03/25 18:01:57;;;;;;;1.02;0.65;;;;;;;;;;8318761;28;20048;-62
2023/03/25 18:05:59;;;;;;;1.08;0.60;;;;;;;;;;8317011;28;20038;-62
2023/03/25 18:09:59;;;;;;;1.60;0.70;;;;;;;;;;8314630;28;20021;-62
2023/03/25 18:14:00;;;;;;;1.23;0.95;;;;;;;;;;8317400;28;20037;-62
2023/03/25 18:18:00;;;;;;;1.52;1.10;;;;;;;;;;8315692;28;20041;-62
2023/03/25 18:22:00;;;;;;;1.30;0.90;;;;;;;;;;8317624;28;20466;-62
2023/03/25 18:26:03;;;;;;;1.38;0.80;;;;;;;;;;8315879;28;20070;-62
2023/03/25 18:30:22;;;;;;;1.52;0.80;;;;;;;;;;8314475;28;20024;-63
2023/03/25 18:34:24;;;;;;;2.35;1.13;;;;;;;;;;8317625;28;20128;-62
2023/03/25 18:38:25;;;;;;;2.05;0.88;;;;;;;;;;8315218;28;20025;-62
2023/03/25 18:42:25;;;;;;;1.90;0.90;;;;;;;;;;8315060;28;20080;-62
2023/03/25 18:46:25;;;;;;;2.15;0.82;;;;;;;;;;8313756;28;20444;-62
2023/03/25 18:50:52;;;;;;;3.90;1.10;;;;;;;;;;8316198;28;20057;-62
2023/03/25 18:54:52;;;;;;;2.95;1.00;;;;;;;;;;8313709;28;20380;-62
2023/03/25 18:58:52;;;;;;;2.03;0.75;;;;;;;;;;8316393;28;20055;-62
2023/03/25 19:02:52;;;;;;;3.08;0.80;;;;;;;;;;8315221;28;20517;-62
2023/03/25 19:06:53;;;;;;;2.65;1.10;;;;;;;;;;8314191;28;20776;-62
2023/03/25 19:10:53;;;;;;;3.75;1.10;;;;;;;;;;8315357;28;20037;-62
2023/03/25 19:14:54;;;;;;;2.00;0.88;;;;;;;;;;8316499;28;20064;-62
2023/03/25 19:18:54;;;;;;;1.90;1.03;;;;;;;;;;8316466;28;20040;-62
2023/03/25 19:22:54;;;;;;;2.38;0.70;;;;;;;;;;8314684;28;20271;-61
2023/03/25 19:26:55;;;;;;;2.38;1.00;;;;;;;;;;8315373;28;20028;-62
2023/03/25 19:30:58;;;;;;;2.00;0.95;;;;;;;;;;8299862;28;20029;-62
2023/03/25 19:34:58;;;;;;;2.72;1.20;;;;;;;;;;8314011;28;20021;-62
2023/03/25 19:39:04;;;;;;;4.32;1.50;;;;;;;;;;8315554;28;20039;-62
2023/03/25 19:43:05;;;;;;;3.85;1.58;;;;;;;;;;8314550;28;20386;-62
2023/03/25 19:47:05;;;;;;;4.60;1.67;;;;;;;;;;8312814;28;20044;-62
2023/03/25 19:51:05;;;;;;;5.40;1.70;;;;;;;;;;8315060;28;20115;-62
2023/03/25 19:55:06;;;;;;;3.70;1.40;;;;;;;;;;8313958;28;20041;-62
2023/03/25 19:59:07;;;;;;;5.72;1.67;;;;;;;;;;8312198;28;20291;-62
2023/03/25 20:03:07;;;;;;;4.00;1.25;;;;;;;;;;8313885;28;20120;-62
2023/03/25 20:07:07;;;;;;;3.30;1.50;;;;;;;;;;8313068;28;20307;-61
2023/03/25 20:11:09;;;;;;;3.58;1.33;;;;;;;;;;8310937;28;20009;-62
2023/03/25 20:15:09;;;;;;;3.15;1.23;;;;;;;;;;8315138;28;20029;-62
2023/03/25 20:19:09;;;;;;;3.25;1.23;;;;;;;;;;8305696;28;20078;-62
2023/03/25 20:23:10;;;;;;;5.00;1.48;;;;;;;;;;8312068;28;20025;-62
2023/03/25 20:27:10;;;;;;;5.32;1.35;;;;;;;;;;8306747;28;20145;-62
2023/03/25 20:31:18;;;;;;;6.55;1.45;;;;;;;;;;8314172;28;20133;-62
2023/03/25 20:35:19;;;;;;;3.45;1.38;;;;;;;;;;8314333;28;20048;-61
2023/03/25 20:39:21;;;;;;;3.13;1.15;;;;;;;;;;8313207;28;20117;-62
2023/03/25 20:43:22;;;;;;;6.00;1.17;;;;;;;;;;8313703;28;20025;-62
2023/03/25 20:47:22;;;;;;;3.40;1.23;;;;;;;;;;8311759;28;20831;-62
2023/03/25 20:51:23;;;;;;;3.28;1.23;;;;;;;;;;8312059;28;20160;-62
2023/03/25 20:55:24;;;;;;;4.38;1.50;;;;;;;;;;8311526;28;20032;-62
2023/03/25 20:59:24;;;;;;;3.05;1.08;;;;;;;;;;8312778;28;20051;-62
2023/03/25 21:03:25;;;;;;;4.60;1.15;;;;;;;;;;8313721;28;20037;-62
2023/03/25 21:07:30;;;;;;;4.97;1.35;;;;;;;;;;8311680;28;20098;-62
2023/03/25 21:11:31;;;;;;;3.83;1.27;;;;;;;;;;8312669;28;20032;-62
2023/03/25 21:15:31;;;;;;;4.30;1.30;;;;;;;;;;8312112;28;20029;-62
2023/03/25 21:19:31;;;;;;;3.25;1.30;;;;;;;;;;8312538;28;20027;-62
2023/03/25 21:23:31;;;;;;;5.70;1.30;;;;;;;;;;8314639;28;20013;-62
2023/03/25 21:27:32;;;;;;;4.75;1.33;;;;;;;;;;8312347;28;20025;-62
2023/03/25 21:31:32;;;;;;;3.42;1.17;;;;;;;;;;8313778;28;20033;-62
2023/03/25 21:35:33;;;;;;;6.38;1.63;;;;;;;;;;8313278;28;20304;-62
2023/03/25 21:39:34;;;;;;;4.90;1.45;;;;;;;;;;8311315;28;20030;-63
2023/03/25 21:43:35;;;;;;;5.00;1.35;;;;;;;;;;8311636;28;20025;-62
2023/03/25 21:47:35;;;;;;;7.28;1.42;;;;;;;;;;8309840;28;20623;-62
2023/03/25 21:51:42;;;;;;;8.43;1.20;;;;;;;;;;8310332;28;20455;-62
2023/03/25 21:55:47;;;;;;;4.43;1.48;;;;;;;;;;8311128;28;20036;-62
2023/03/25 21:59:48;;;;;;;6.25;1.75;;;;;;;;;;8311767;28;20113;-63
2023/03/25 22:03:52;;;;;;;7.50;1.35;;;;;;;;;;8311655;28;20029;-62
2023/03/25 22:07:52;;;;;;;6.90;1.60;;;;;;;;;;8309059;28;20152;-62
2023/03/25 22:11:53;;;;;;;6.53;1.58;;;;;;;;;;8310017;28;20021;-62
2023/03/25 22:15:53;;;;;;;4.00;1.38;;;;;;;;;;8310822;28;20029;-62
2023/03/25 22:19:53;;;;;;;3.17;1.10;;;;;;;;;;8301647;28;20220;-62
2023/03/25 22:23:55;;;;;;;8.80;1.45;;;;;;;;;;8309050;28;20029;-62
2023/03/25 22:27:55;;;;;;;5.82;1.42;;;;;;;;;;8315580;28;20029;-62
2023/03/25 22:31:55;;;;;;;7.50;1.63;;;;;;;;;;8315859;28;20033;-62
2023/03/25 22:36:00;;;;;;;5.07;1.83;;;;;;;;;;8315348;28;20025;-62
2023/03/25 22:40:01;;;;;;;5.03;1.40;;;;;;;;;;8315068;28;20486;-62
2023/03/25 22:44:01;;;;;;;5.70;1.52;;;;;;;;;;8315104;28;20021;-62
2023/03/25 22:48:01;;;;;;;7.22;1.60;;;;;;;;;;8313275;28;20103;-62
2023/03/25 22:52:01;;;;;;;7.28;1.50;;;;;;;;;;8317052;28;20979;-62
2023/03/25 22:56:02;;;;;;;4.50;1.25;;;;;;;;;;8314433;28;20128;-62
2023/03/25 23:00:07;;;;;;;6.18;1.42;;;;;;;;;;8316738;28;20040;-62
2023/03/25 23:04:07;;;;;;;6.10;1.50;;;;;;;;;;8315387;28;20049;-62
2023/03/25 23:08:08;;;;;;;6.55;1.42;;;;;;;;;;8315183;28;20029;-62
2023/03/25 23:12:09;;;;;;;5.05;1.50;;;;;;;;;;8317622;28;20876;-62
2023/03/25 23:16:11;;;;;;;9.50;1.80;;;;;;;;;;8315453;28;20038;-62
2023/03/25 23:20:11;;;;;;;7.25;1.70;;;;;;;;;;8310058;28;20078;-62
2023/03/25 23:24:11;;;;;;;6.10;1.77;;;;;;;;;;8313186;28;20610;-62
2023/03/25 23:28:17;;;;;;;9.75;1.92;;;;;;;;;;8312439;28;20041;-62
2023/03/25 23:32:17;;;;;;;5.30;1.70;;;;;;;;;;8312042;28;20633;-62
2023/03/25 23:36:18;;;;;;;8.82;1.83;;;;;;;;;;8316501;28;20029;-63
2023/03/25 23:40:19;;;;;;;6.40;1.38;;;;;;;;;;8313920;28;20033;-62
2023/03/25 23:44:19;;;;;;;7.82;1.90;;;;;;;;;;8311267;28;20035;-62
2023/03/25 23:48:21;;;;;;;5.40;1.65;;;;;;;;;;8312070;28;20065;-62
2023/03/25 23:52:21;;;;;;;6.50;1.52;;;;;;;;;;8314819;28;20030;-62
2023/03/25 23:56:23;;;;;;;7.85;1.77;;;;;;;;;;8313177;28;20028;-62
